sensor_id;sensor_type;location;lat;lon;timestamp;pressure;altitude;pressure_sealevel;temperature;humidity
36454;BME280;22478;51.740;-1.314;2023-05-20T00:00:44;101554.33;;;4.22;100.00
36454;BME280;22478;51.740;-1.314;2023-05-20T00:03:11;101558.87;;;2.99;100.00
36454;BME280;22478;51.740;-1.314;2023-05-20T00:05:38;101557.79;;;2.44;100.00
36454;BME280;22478;51.740;-1.314;2023-05-20T00:08:05;101561.47;;;2.85;100.00
36454;BME280;22478;51.740;-1.314;2023-05-20T00:10:32;101557.03;;;3.89;100.00
36454;BME280;22478;51.740;-1.314;2023-05-20T00:12:59;101562.70;;;2.92;100.00
36454;BME280;22478;51.740;-1.314;2023-05-20T00:15:27;101562.44;;;2.37;100.00
36454;BME280;22478;51.740;-1.314;2023-05-20T00:17:54;101561.44;;;1.48;100.00
36454;BME280;22478;51.740;-1.314;2023-05-20T00:20:22;101564.11;;;2.81;100.00
36454;BME280;22478;51.740;-1.314;2023-05-20T00:22:49;101560.08;;;4.31;100.00
36454;BME280;22478;51.740;-1.314;2023-05-20T00:25:16;101565.82;;;2.42;100.00
36454;BME280;22478;51.740;-1.314;2023-05-20T00:27:43;101562.63;;;2.93;100.00
36454;BME280;22478;51.740;-1.314;2023-05-20T00:30:10;101559.22;;;3.30;100.00
36454;BME280;22478;51.740;-1.314;2023-05-20T00:32:38;101558.85;;;2.56;100.00
36454;BME280;22478;51.740;-1.314;2023-05-20T00:35:07;101565.06;;;1.20;100.00
36454;BME280;22478;51.740;-1.314;2023-05-20T00:37:34;101562.04;;;3.51;100.00
36454;BME280;22478;51.740;-1.314;2023-05-20T00:40:01;101560.42;;;2.48;100.00
36454;BME280;22478;51.740;-1.314;2023-05-20T00:42:28;101561.77;;;2.20;100.00
36454;BME280;22478;51.740;-1.314;2023-05-20T00:44:56;101561.79;;;2.50;100.00
36454;BME280;22478;51.740;-1.314;2023-05-20T00:47:26;101571.47;;;0.79;100.00
36454;BME280;22478;51.740;-1.314;2023-05-20T00:49:54;101565.40;;;2.41;100.00
36454;BME280;22478;51.740;-1.314;2023-05-20T00:52:23;101568.87;;;0.85;100.00
36454;BME280;22478;51.740;-1.314;2023-05-20T00:54:51;101563.25;;;2.09;100.00
36454;BME280;22478;51.740;-1.314;2023-05-20T00:57:18;101558.84;;;2.60;100.00
36454;BME280;22478;51.740;-1.314;2023-05-20T00:59:46;101559.32;;;1.36;100.00
36454;BME280;22478;51.740;-1.314;2023-05-20T01:02:13;101556.89;;;3.52;100.00
36454;BME280;22478;51.740;-1.314;2023-05-20T01:04:40;101556.46;;;1.40;100.00
36454;BME280;22478;51.740;-1.314;2023-05-20T01:07:07;101550.87;;;2.28;100.00
36454;BME280;22478;51.740;-1.314;2023-05-20T01:09:34;101546.11;;;1.94;100.00
36454;BME280;22478;51.740;-1.314;2023-05-20T01:12:05;101552.80;;;1.28;100.00
36454;BME280;22478;51.740;-1.314;2023-05-20T01:14:40;101549.70;;;0.70;100.00
36454;BME280;22478;51.740;-1.314;2023-05-20T01:17:09;101550.72;;;0.49;100.00
36454;BME280;22478;51.740;-1.314;2023-05-20T01:19:40;101543.12;;;1.64;100.00
36454;BME280;22478;51.740;-1.314;2023-05-20T01:22:09;101541.69;;;1.34;100.00
36454;BME280;22478;51.740;-1.314;2023-05-20T01:24:36;101536.94;;;0.59;100.00
36454;BME280;22478;51.740;-1.314;2023-05-20T01:27:04;101536.74;;;0.82;100.00
36454;BME280;22478;51.740;-1.314;2023-05-20T01:29:31;101532.30;;;1.34;100.00
36454;BME280;22478;51.740;-1.314;2023-05-20T01:32:00;101540.91;;;0.32;100.00
36454;BME280;22478;51.740;-1.314;2023-05-20T01:34:27;101540.03;;;0.85;100.00
36454;BME280;22478;51.740;-1.314;2023-05-20T01:36:54;101539.29;;;0.14;100.00
36454;BME280;22478;51.740;-1.314;2023-05-20T01:39:23;101529.85;;;2.47;100.00
36454;BME280;22478;51.740;-1.314;2023-05-20T01:41:52;101530.49;;;1.46;100.00
36454;BME280;22478;51.740;-1.314;2023-05-20T01:44:20;101532.78;;;0.98;100.00
36454;BME280;22478;51.740;-1.314;2023-05-20T01:46:48;101529.69;;;1.62;100.00
36454;BME280;22478;51.740;-1.314;2023-05-20T01:49:15;101529.86;;;1.12;100.00
36454;BME280;22478;51.740;-1.314;2023-05-20T01:51:42;101525.18;;;0.94;100.00
36454;BME280;22478;51.740;-1.314;2023-05-20T01:54:10;101528.77;;;1.37;100.00
36454;BME280;22478;51.740;-1.314;2023-05-20T01:56:37;101525.98;;;1.85;100.00
36454;BME280;22478;51.740;-1.314;2023-05-20T01:59:04;101530.07;;;0.81;100.00
36454;BME280;22478;51.740;-1.314;2023-05-20T02:01:31;101524.23;;;1.28;100.00
36454;BME280;22478;51.740;-1.314;2023-05-20T02:03:58;101519.41;;;1.48;100.00
36454;BME280;22478;51.740;-1.314;2023-05-20T02:06:25;101519.24;;;2.37;100.00
36454;BME280;22478;51.740;-1.314;2023-05-20T02:08:52;101520.17;;;3.34;100.00
36454;BME280;22478;51.740;-1.314;2023-05-20T02:11:19;101520.83;;;1.58;100.00
36454;BME280;22478;51.740;-1.314;2023-05-20T02:13:46;101528.23;;;0.89;100.00
36454;BME280;22478;51.740;-1.314;2023-05-20T02:16:14;101519.65;;;2.49;100.00
36454;BME280;22478;51.740;-1.314;2023-05-20T02:18:41;101516.21;;;2.80;100.00
36454;BME280;22478;51.740;-1.314;2023-05-20T02:21:08;101516.40;;;2.15;100.00
36454;BME280;22478;51.740;-1.314;2023-05-20T02:23:35;101514.43;;;3.23;100.00
36454;BME280;22478;51.740;-1.314;2023-05-20T02:26:02;101510.32;;;2.83;100.00
36454;BME280;22478;51.740;-1.314;2023-05-20T02:28:30;101513.98;;;1.72;100.00
36454;BME280;22478;51.740;-1.314;2023-05-20T02:30:57;101515.92;;;2.79;100.00
36454;BME280;22478;51.740;-1.314;2023-05-20T02:33:24;101512.14;;;2.88;100.00
36454;BME280;22478;51.740;-1.314;2023-05-20T02:35:52;101508.01;;;2.76;100.00
36454;BME280;22478;51.740;-1.314;2023-05-20T02:38:19;101503.37;;;3.90;100.00
36454;BME280;22478;51.740;-1.314;2023-05-20T02:40:46;101508.23;;;2.99;100.00
36454;BME280;22478;51.740;-1.314;2023-05-20T02:43:13;101509.54;;;2.95;100.00
36454;BME280;22478;51.740;-1.314;2023-05-20T02:45:41;101513.76;;;-0.59;100.00
36454;BME280;22478;51.740;-1.314;2023-05-20T02:48:08;101508.21;;;2.49;100.00
36454;BME280;22478;51.740;-1.314;2023-05-20T02:50:37;101508.84;;;1.73;100.00
36454;BME280;22478;51.740;-1.314;2023-05-20T02:53:04;101511.85;;;0.74;100.00
36454;BME280;22478;51.740;-1.314;2023-05-20T02:55:33;101513.44;;;3.13;100.00
36454;BME280;22478;51.740;-1.314;2023-05-20T02:58:01;101516.41;;;2.16;100.00
36454;BME280;22478;51.740;-1.314;2023-05-20T03:00:29;101515.62;;;2.64;100.00
36454;BME280;22478;51.740;-1.314;2023-05-20T03:02:56;101515.35;;;3.28;100.00
36454;BME280;22478;51.740;-1.314;2023-05-20T03:05:23;101513.67;;;2.82;100.00
36454;BME280;22478;51.740;-1.314;2023-05-20T03:07:51;101509.85;;;1.38;100.00
36454;BME280;22478;51.740;-1.314;2023-05-20T03:10:18;101502.47;;;3.27;100.00
36454;BME280;22478;51.740;-1.314;2023-05-20T03:12:45;101505.78;;;1.37;100.00
36454;BME280;22478;51.740;-1.314;2023-05-20T03:15:12;101501.53;;;1.83;100.00
36454;BME280;22478;51.740;-1.314;2023-05-20T03:17:39;101504.54;;;2.90;100.00
36454;BME280;22478;51.740;-1.314;2023-05-20T03:20:07;101499.84;;;2.92;100.00
36454;BME280;22478;51.740;-1.314;2023-05-20T03:22:35;101498.19;;;3.14;100.00
36454;BME280;22478;51.740;-1.314;2023-05-20T03:25:02;101496.40;;;1.29;100.00
36454;BME280;22478;51.740;-1.314;2023-05-20T03:27:30;101496.58;;;1.66;100.00
36454;BME280;22478;51.740;-1.314;2023-05-20T03:29:57;101493.56;;;1.87;100.00
36454;BME280;22478;51.740;-1.314;2023-05-20T03:32:25;101497.29;;;0.86;100.00
36454;BME280;22478;51.740;-1.314;2023-05-20T03:34:52;101494.14;;;1.90;100.00
36454;BME280;22478;51.740;-1.314;2023-05-20T03:37:19;101493.13;;;2.13;100.00
36454;BME280;22478;51.740;-1.314;2023-05-20T03:39:47;101492.18;;;2.05;100.00
36454;BME280;22478;51.740;-1.314;2023-05-20T03:42:14;101490.66;;;2.92;100.00
36454;BME280;22478;51.740;-1.314;2023-05-20T03:44:42;101489.68;;;2.36;100.00
36454;BME280;22478;51.740;-1.314;2023-05-20T03:47:09;101493.30;;;1.06;100.00
36454;BME280;22478;51.740;-1.314;2023-05-20T03:49:36;101500.49;;;0.54;100.00
36454;BME280;22478;51.740;-1.314;2023-05-20T03:52:03;101494.47;;;0.52;100.00
36454;BME280;22478;51.740;-1.314;2023-05-20T03:54:31;101498.40;;;1.31;100.00
36454;BME280;22478;51.740;-1.314;2023-05-20T03:56:58;101489.51;;;3.55;100.00
36454;BME280;22478;51.740;-1.314;2023-05-20T03:59:25;101491.22;;;1.42;100.00
36454;BME280;22478;51.740;-1.314;2023-05-20T04:01:53;101491.72;;;1.91;100.00
36454;BME280;22478;51.740;-1.314;2023-05-20T04:04:20;101484.39;;;3.79;100.00
36454;BME280;22478;51.740;-1.314;2023-05-20T04:06:47;101487.93;;;1.88;100.00
36454;BME280;22478;51.740;-1.314;2023-05-20T04:09:14;101490.98;;;3.24;100.00
36454;BME280;22478;51.740;-1.314;2023-05-20T04:11:41;101489.78;;;2.87;100.00
36454;BME280;22478;51.740;-1.314;2023-05-20T04:14:09;101488.21;;;3.18;100.00
36454;BME280;22478;51.740;-1.314;2023-05-20T04:16:36;101481.63;;;4.10;100.00
36454;BME280;22478;51.740;-1.314;2023-05-20T04:19:03;101486.29;;;2.63;100.00
36454;BME280;22478;51.740;-1.314;2023-05-20T04:21:31;101484.79;;;2.38;100.00
36454;BME280;22478;51.740;-1.314;2023-05-20T04:23:58;101482.12;;;2.83;100.00
36454;BME280;22478;51.740;-1.314;2023-05-20T04:26:26;101486.52;;;3.08;100.00
36454;BME280;22478;51.740;-1.314;2023-05-20T04:28:53;101485.08;;;3.20;100.00
36454;BME280;22478;51.740;-1.314;2023-05-20T04:31:21;101479.96;;;4.11;100.00
36454;BME280;22478;51.740;-1.314;2023-05-20T04:33:48;101483.11;;;2.52;100.00
36454;BME280;22478;51.740;-1.314;2023-05-20T04:36:15;101481.62;;;2.24;100.00
36454;BME280;22478;51.740;-1.314;2023-05-20T04:38:42;101481.38;;;2.88;100.00
36454;BME280;22478;51.740;-1.314;2023-05-20T04:41:09;101484.85;;;1.75;100.00
36454;BME280;22478;51.740;-1.314;2023-05-20T04:43:36;101479.69;;;1.64;100.00
36454;BME280;22478;51.740;-1.314;2023-05-20T04:46:03;101481.36;;;2.95;100.00
36454;BME280;22478;51.740;-1.314;2023-05-20T04:48:31;101493.74;;;0.68;100.00
36454;BME280;22478;51.740;-1.314;2023-05-20T04:50:58;101494.61;;;1.03;100.00
36454;BME280;22478;51.740;-1.314;2023-05-20T04:53:25;101493.79;;;1.13;100.00
36454;BME280;22478;51.740;-1.314;2023-05-20T04:55:54;101486.79;;;1.89;100.00
36454;BME280;22478;51.740;-1.314;2023-05-20T04:58:21;101487.20;;;2.14;100.00
36454;BME280;22478;51.740;-1.314;2023-05-20T05:00:49;101497.05;;;1.68;100.00
36454;BME280;22478;51.740;-1.314;2023-05-20T05:03:17;101499.97;;;0.45;100.00
36454;BME280;22478;51.740;-1.314;2023-05-20T05:05:44;101501.10;;;0.11;100.00
36454;BME280;22478;51.740;-1.314;2023-05-20T05:08:11;101488.78;;;2.42;100.00
36454;BME280;22478;51.740;-1.314;2023-05-20T05:10:38;101490.55;;;3.14;100.00
36454;BME280;22478;51.740;-1.314;2023-05-20T05:13:05;101487.95;;;2.14;100.00
36454;BME280;22478;51.740;-1.314;2023-05-20T05:15:33;101486.41;;;2.43;100.00
36454;BME280;22478;51.740;-1.314;2023-05-20T05:18:00;101487.05;;;0.53;100.00
36454;BME280;22478;51.740;-1.314;2023-05-20T05:20:27;101488.22;;;0.96;100.00
36454;BME280;22478;51.740;-1.314;2023-05-20T05:22:54;101485.76;;;1.41;100.00
36454;BME280;22478;51.740;-1.314;2023-05-20T05:25:22;101486.21;;;1.17;100.00
36454;BME280;22478;51.740;-1.314;2023-05-20T05:27:49;101485.23;;;2.29;100.00
36454;BME280;22478;51.740;-1.314;2023-05-20T05:30:16;101491.92;;;1.40;100.00
36454;BME280;22478;51.740;-1.314;2023-05-20T05:32:44;101488.87;;;1.76;100.00
36454;BME280;22478;51.740;-1.314;2023-05-20T05:35:11;101484.62;;;2.75;100.00
36454;BME280;22478;51.740;-1.314;2023-05-20T05:37:38;101489.21;;;2.62;100.00
36454;BME280;22478;51.740;-1.314;2023-05-20T05:40:07;101493.53;;;2.63;100.00
36454;BME280;22478;51.740;-1.314;2023-05-20T05:42:34;101496.39;;;1.49;100.00
36454;BME280;22478;51.740;-1.314;2023-05-20T05:45:01;101496.16;;;3.34;100.00
36454;BME280;22478;51.740;-1.314;2023-05-20T05:47:28;101496.74;;;2.35;100.00
36454;BME280;22478;51.740;-1.314;2023-05-20T05:49:55;101495.29;;;1.96;100.00
36454;BME280;22478;51.740;-1.314;2023-05-20T05:52:23;101495.91;;;1.68;100.00
36454;BME280;22478;51.740;-1.314;2023-05-20T05:54:50;101502.33;;;0.74;100.00
36454;BME280;22478;51.740;-1.314;2023-05-20T05:57:17;101503.19;;;1.01;100.00
36454;BME280;22478;51.740;-1.314;2023-05-20T05:59:45;101493.51;;;2.71;100.00
36454;BME280;22478;51.740;-1.314;2023-05-20T06:02:13;101493.08;;;1.72;100.00
36454;BME280;22478;51.740;-1.314;2023-05-20T06:04:40;101498.57;;;0.90;100.00
36454;BME280;22478;51.740;-1.314;2023-05-20T06:07:07;101495.76;;;2.39;100.00
36454;BME280;22478;51.740;-1.314;2023-05-20T06:09:34;101492.35;;;3.52;100.00
36454;BME280;22478;51.740;-1.314;2023-05-20T06:12:02;101487.78;;;2.85;100.00
36454;BME280;22478;51.740;-1.314;2023-05-20T06:14:29;101487.22;;;1.74;100.00
36454;BME280;22478;51.740;-1.314;2023-05-20T06:16:57;101484.60;;;2.87;100.00
36454;BME280;22478;51.740;-1.314;2023-05-20T06:19:24;101481.69;;;0.88;100.00
36454;BME280;22478;51.740;-1.314;2023-05-20T06:21:51;101481.62;;;1.57;100.00
36454;BME280;22478;51.740;-1.314;2023-05-20T06:24:18;101480.71;;;1.65;100.00
36454;BME280;22478;51.740;-1.314;2023-05-20T06:26:45;101474.95;;;1.65;100.00
36454;BME280;22478;51.740;-1.314;2023-05-20T06:29:12;101471.91;;;2.34;100.00
36454;BME280;22478;51.740;-1.314;2023-05-20T06:31:40;101473.25;;;0.81;100.00
36454;BME280;22478;51.740;-1.314;2023-05-20T06:34:07;101464.84;;;3.19;100.00
36454;BME280;22478;51.740;-1.314;2023-05-20T06:36:35;101460.55;;;2.03;100.00
36454;BME280;22478;51.740;-1.314;2023-05-20T06:39:03;101459.19;;;2.56;100.00
36454;BME280;22478;51.740;-1.314;2023-05-20T06:41:30;101457.47;;;3.37;100.00
36454;BME280;22478;51.740;-1.314;2023-05-20T06:43:57;101460.20;;;2.09;100.00
36454;BME280;22478;51.740;-1.314;2023-05-20T06:46:24;101462.84;;;1.34;100.00
36454;BME280;22478;51.740;-1.314;2023-05-20T06:48:51;101459.86;;;2.13;100.00
36454;BME280;22478;51.740;-1.314;2023-05-20T06:51:19;101460.81;;;1.70;100.00
36454;BME280;22478;51.740;-1.314;2023-05-20T06:53:46;101459.58;;;1.55;100.00
36454;BME280;22478;51.740;-1.314;2023-05-20T06:56:13;101451.09;;;3.07;100.00
36454;BME280;22478;51.740;-1.314;2023-05-20T06:58:40;101461.45;;;1.21;100.00
36454;BME280;22478;51.740;-1.314;2023-05-20T07:01:08;101461.20;;;2.06;100.00
36454;BME280;22478;51.740;-1.314;2023-05-20T07:03:35;101450.30;;;3.82;100.00
36454;BME280;22478;51.740;-1.314;2023-05-20T07:06:02;101445.07;;;4.27;100.00
36454;BME280;22478;51.740;-1.314;2023-05-20T07:08:29;101444.76;;;5.14;100.00
36454;BME280;22478;51.740;-1.314;2023-05-20T07:10:57;101447.27;;;4.00;100.00
36454;BME280;22478;51.740;-1.314;2023-05-20T07:13:24;101447.22;;;3.38;100.00
36454;BME280;22478;51.740;-1.314;2023-05-20T07:15:52;101444.32;;;3.53;100.00
36454;BME280;22478;51.740;-1.314;2023-05-20T07:18:19;101444.49;;;3.06;100.00
36454;BME280;22478;51.740;-1.314;2023-05-20T07:20:46;101443.80;;;3.99;100.00
36454;BME280;22478;51.740;-1.314;2023-05-20T07:23:13;101438.50;;;4.29;100.00
36454;BME280;22478;51.740;-1.314;2023-05-20T07:25:40;101440.21;;;3.95;100.00
36454;BME280;22478;51.740;-1.314;2023-05-20T07:28:08;101438.11;;;3.88;100.00
36454;BME280;22478;51.740;-1.314;2023-05-20T07:30:35;101441.00;;;4.91;100.00
36454;BME280;22478;51.740;-1.314;2023-05-20T07:33:02;101437.26;;;4.29;100.00
36454;BME280;22478;51.740;-1.314;2023-05-20T07:35:29;101437.40;;;5.12;100.00
36454;BME280;22478;51.740;-1.314;2023-05-20T07:37:57;101448.75;;;3.30;100.00
36454;BME280;22478;51.740;-1.314;2023-05-20T07:40:24;101440.56;;;3.69;100.00
36454;BME280;22478;51.740;-1.314;2023-05-20T07:42:52;101445.17;;;3.95;100.00
36454;BME280;22478;51.740;-1.314;2023-05-20T07:45:19;101443.22;;;3.80;100.00
36454;BME280;22478;51.740;-1.314;2023-05-20T07:47:46;101444.91;;;3.26;100.00
36454;BME280;22478;51.740;-1.314;2023-05-20T07:50:13;101443.09;;;3.29;100.00
36454;BME280;22478;51.740;-1.314;2023-05-20T07:52:41;101442.97;;;3.98;100.00
36454;BME280;22478;51.740;-1.314;2023-05-20T07:55:08;101442.17;;;5.36;100.00
36454;BME280;22478;51.740;-1.314;2023-05-20T07:57:35;101437.85;;;5.36;100.00
36454;BME280;22478;51.740;-1.314;2023-05-20T08:00:03;101438.66;;;5.75;100.00
36454;BME280;22478;51.740;-1.314;2023-05-20T08:02:30;101428.41;;;4.93;100.00
36454;BME280;22478;51.740;-1.314;2023-05-20T08:04:57;101434.68;;;6.26;100.00
36454;BME280;22478;51.740;-1.314;2023-05-20T08:07:24;101442.73;;;4.54;100.00
36454;BME280;22478;51.740;-1.314;2023-05-20T08:09:51;101436.25;;;6.55;100.00
36454;BME280;22478;51.740;-1.314;2023-05-20T08:12:18;101438.07;;;4.86;100.00
36454;BME280;22478;51.740;-1.314;2023-05-20T08:14:45;101429.79;;;7.69;100.00
36454;BME280;22478;51.740;-1.314;2023-05-20T08:17:13;101424.19;;;9.54;100.00
36454;BME280;22478;51.740;-1.314;2023-05-20T08:19:40;101425.58;;;7.39;100.00
36454;BME280;22478;51.740;-1.314;2023-05-20T08:22:08;101410.97;;;10.26;97.20
36454;BME280;22478;51.740;-1.314;2023-05-20T08:24:35;101417.84;;;8.39;100.00
36454;BME280;22478;51.740;-1.314;2023-05-20T08:27:03;101410.70;;;12.16;84.38
36454;BME280;22478;51.740;-1.314;2023-05-20T08:29:30;101409.52;;;12.39;85.84
36454;BME280;22478;51.740;-1.314;2023-05-20T08:31:58;101413.68;;;11.24;86.13
36454;BME280;22478;51.740;-1.314;2023-05-20T08:34:25;101414.05;;;9.17;86.43
36454;BME280;22478;51.740;-1.314;2023-05-20T08:36:52;101409.80;;;11.63;83.02
36454;BME280;22478;51.740;-1.314;2023-05-20T08:39:19;101403.10;;;14.35;73.54
36454;BME280;22478;51.740;-1.314;2023-05-20T08:41:46;101408.11;;;13.19;73.23
36454;BME280;22478;51.740;-1.314;2023-05-20T08:44:15;101404.31;;;11.35;76.09
36454;BME280;22478;51.740;-1.314;2023-05-20T08:46:44;101409.26;;;14.17;71.31
36454;BME280;22478;51.740;-1.314;2023-05-20T08:49:12;101416.16;;;10.10;81.78
36454;BME280;22478;51.740;-1.314;2023-05-20T08:51:39;101414.13;;;10.01;83.14
36454;BME280;22478;51.740;-1.314;2023-05-20T08:54:08;101404.54;;;14.92;66.57
36454;BME280;22478;51.740;-1.314;2023-05-20T08:56:35;101400.18;;;14.05;69.03
36454;BME280;22478;51.740;-1.314;2023-05-20T08:59:03;101401.81;;;15.31;63.82
36454;BME280;22478;51.740;-1.314;2023-05-20T09:01:30;101393.06;;;13.88;66.11
36454;BME280;22478;51.740;-1.314;2023-05-20T09:03:58;101396.27;;;14.19;59.44
36454;BME280;22478;51.740;-1.314;2023-05-20T09:06:25;101392.93;;;15.45;57.42
36454;BME280;22478;51.740;-1.314;2023-05-20T09:08:52;101391.41;;;13.12;61.96
36454;BME280;22478;51.740;-1.314;2023-05-20T09:11:19;101384.38;;;13.27;65.54
36454;BME280;22478;51.740;-1.314;2023-05-20T09:13:46;101370.12;;;16.80;56.85
36454;BME280;22478;51.740;-1.314;2023-05-20T09:16:14;101373.81;;;15.53;56.45
36454;BME280;22478;51.740;-1.314;2023-05-20T09:18:42;101381.26;;;13.60;63.04
36454;BME280;22478;51.740;-1.314;2023-05-20T09:21:09;101365.47;;;17.09;53.02
36454;BME280;22478;51.740;-1.314;2023-05-20T09:23:36;101370.07;;;19.18;51.92
36454;BME280;22478;51.740;-1.314;2023-05-20T09:26:03;101380.03;;;14.39;57.73
36454;BME280;22478;51.740;-1.314;2023-05-20T09:28:30;101382.52;;;14.49;55.66
36454;BME280;22478;51.740;-1.314;2023-05-20T09:30:58;101373.40;;;16.00;53.97
36454;BME280;22478;51.740;-1.314;2023-05-20T09:33:27;101368.89;;;18.67;50.96
36454;BME280;22478;51.740;-1.314;2023-05-20T09:36:01;101383.59;;;13.39;57.75
36454;BME280;22478;51.740;-1.314;2023-05-20T09:38:31;101379.50;;;14.02;57.98
36454;BME280;22478;51.740;-1.314;2023-05-20T09:41:00;101378.58;;;13.81;64.84
36454;BME280;22478;51.740;-1.314;2023-05-20T09:43:29;101362.70;;;17.14;53.35
36454;BME280;22478;51.740;-1.314;2023-05-20T09:45:56;101366.87;;;17.28;55.06
36454;BME280;22478;51.740;-1.314;2023-05-20T09:48:25;101362.22;;;19.69;47.94
36454;BME280;22478;51.740;-1.314;2023-05-20T09:50:53;101362.81;;;17.26;51.77
36454;BME280;22478;51.740;-1.314;2023-05-20T09:53:23;101363.57;;;17.19;51.12
36454;BME280;22478;51.740;-1.314;2023-05-20T09:55:53;101357.67;;;18.22;51.06
36454;BME280;22478;51.740;-1.314;2023-05-20T09:58:21;101362.19;;;13.92;60.27
36454;BME280;22478;51.740;-1.314;2023-05-20T10:00:49;101355.66;;;16.94;51.73
36454;BME280;22478;51.740;-1.314;2023-05-20T10:03:16;101346.86;;;19.34;48.23
36454;BME280;22478;51.740;-1.314;2023-05-20T10:05:48;101349.49;;;16.68;51.49
36454;BME280;22478;51.740;-1.314;2023-05-20T10:08:31;101341.10;;;17.05;50.48
36454;BME280;22478;51.740;-1.314;2023-05-20T10:11:12;101345.23;;;13.69;56.95
36454;BME280;22478;51.740;-1.314;2023-05-20T10:13:57;101343.66;;;13.16;63.05
36454;BME280;22478;51.740;-1.314;2023-05-20T10:16:45;101331.16;;;16.04;55.59
36454;BME280;22478;51.740;-1.314;2023-05-20T10:19:26;101324.63;;;16.41;53.47
36454;BME280;22478;51.740;-1.314;2023-05-20T10:21:57;101316.32;;;15.61;53.86
36454;BME280;22478;51.740;-1.314;2023-05-20T10:24:29;101315.89;;;18.77;49.79
36454;BME280;22478;51.740;-1.314;2023-05-20T10:26:58;101315.10;;;18.86;49.23
36454;BME280;22478;51.740;-1.314;2023-05-20T10:29:26;101320.31;;;19.10;45.30
36454;BME280;22478;51.740;-1.314;2023-05-20T10:31:54;101314.76;;;19.32;45.09
36454;BME280;22478;51.740;-1.314;2023-05-20T10:34:22;101313.21;;;17.82;48.94
36454;BME280;22478;51.740;-1.314;2023-05-20T10:36:58;101310.47;;;17.80;48.24
36454;BME280;22478;51.740;-1.314;2023-05-20T10:39:26;101310.68;;;18.24;45.06
36454;BME280;22478;51.740;-1.314;2023-05-20T10:42:05;101315.01;;;16.51;47.72
36454;BME280;22478;51.740;-1.314;2023-05-20T10:44:40;101308.48;;;15.61;47.79
36454;BME280;22478;51.740;-1.314;2023-05-20T10:47:08;101303.08;;;18.35;46.30
36454;BME280;22478;51.740;-1.314;2023-05-20T10:49:40;101307.36;;;15.07;48.60
36454;BME280;22478;51.740;-1.314;2023-05-20T10:52:08;101309.55;;;16.37;48.38
36454;BME280;22478;51.740;-1.314;2023-05-20T10:54:42;101303.80;;;15.49;49.18
36454;BME280;22478;51.740;-1.314;2023-05-20T10:57:10;101290.39;;;19.59;42.77
36454;BME280;22478;51.740;-1.314;2023-05-20T10:59:37;101291.53;;;17.57;44.57
36454;BME280;22478;51.740;-1.314;2023-05-20T11:02:05;101287.94;;;18.42;43.87
36454;BME280;22478;51.740;-1.314;2023-05-20T11:04:34;101295.59;;;16.49;44.79
36454;BME280;22478;51.740;-1.314;2023-05-20T11:07:01;101290.79;;;18.59;41.21
36454;BME280;22478;51.740;-1.314;2023-05-20T11:09:28;101275.13;;;19.99;39.70
36454;BME280;22478;51.740;-1.314;2023-05-20T11:11:56;101275.50;;;20.50;39.67
36454;BME280;22478;51.740;-1.314;2023-05-20T11:14:24;101268.24;;;20.66;37.14
36454;BME280;22478;51.740;-1.314;2023-05-20T11:16:52;101264.18;;;22.22;35.18
36454;BME280;22478;51.740;-1.314;2023-05-20T11:19:19;101284.43;;;16.96;40.29
36454;BME280;22478;51.740;-1.314;2023-05-20T11:21:47;101269.17;;;20.41;36.05
36454;BME280;22478;51.740;-1.314;2023-05-20T11:24:22;101276.99;;;17.85;38.21
36454;BME280;22478;51.740;-1.314;2023-05-20T11:26:50;101275.65;;;18.90;39.08
36454;BME280;22478;51.740;-1.314;2023-05-20T11:29:18;101265.97;;;20.06;36.00
36454;BME280;22478;51.740;-1.314;2023-05-20T11:31:47;101261.16;;;20.89;36.55
36454;BME280;22478;51.740;-1.314;2023-05-20T11:34:14;101263.26;;;17.42;40.27
36454;BME280;22478;51.740;-1.314;2023-05-20T11:36:42;101267.07;;;17.43;40.67
36454;BME280;22478;51.740;-1.314;2023-05-20T11:39:09;101258.55;;;20.50;34.49
36454;BME280;22478;51.740;-1.314;2023-05-20T11:41:37;101267.47;;;18.44;39.18
36454;BME280;22478;51.740;-1.314;2023-05-20T11:44:09;101265.40;;;16.52;41.58
36454;BME280;22478;51.740;-1.314;2023-05-20T11:46:40;101255.14;;;18.89;40.19
36454;BME280;22478;51.740;-1.314;2023-05-20T11:49:08;101252.59;;;18.26;40.81
36454;BME280;22478;51.740;-1.314;2023-05-20T11:51:36;101256.50;;;18.36;40.55
36454;BME280;22478;51.740;-1.314;2023-05-20T11:54:06;101244.74;;;20.40;36.87
36454;BME280;22478;51.740;-1.314;2023-05-20T11:56:34;101236.00;;;21.41;35.76
36454;BME280;22478;51.740;-1.314;2023-05-20T11:59:03;101244.24;;;19.15;37.68
36454;BME280;22478;51.740;-1.314;2023-05-20T12:01:32;101234.12;;;17.21;38.60
36454;BME280;22478;51.740;-1.314;2023-05-20T12:03:59;101237.90;;;17.56;39.14
36454;BME280;22478;51.740;-1.314;2023-05-20T12:06:26;101232.86;;;19.84;36.42
36454;BME280;22478;51.740;-1.314;2023-05-20T12:08:53;101230.88;;;20.14;37.04
36454;BME280;22478;51.740;-1.314;2023-05-20T12:11:20;101227.81;;;18.22;37.87
36454;BME280;22478;51.740;-1.314;2023-05-20T12:13:47;101222.37;;;20.31;35.35
36454;BME280;22478;51.740;-1.314;2023-05-20T12:16:14;101225.62;;;18.94;37.74
36454;BME280;22478;51.740;-1.314;2023-05-20T12:18:42;101219.89;;;18.05;35.94
36454;BME280;22478;51.740;-1.314;2023-05-20T12:21:08;101220.50;;;17.92;38.26
36454;BME280;22478;51.740;-1.314;2023-05-20T12:23:35;101213.58;;;19.70;36.68
36454;BME280;22478;51.740;-1.314;2023-05-20T12:26:02;101213.32;;;17.83;37.39
36454;BME280;22478;51.740;-1.314;2023-05-20T12:28:30;101215.56;;;18.58;36.67
36454;BME280;22478;51.740;-1.314;2023-05-20T12:30:56;101216.66;;;16.07;38.57
36454;BME280;22478;51.740;-1.314;2023-05-20T12:33:23;101213.22;;;17.26;39.15
36454;BME280;22478;51.740;-1.314;2023-05-20T12:35:50;101202.34;;;19.00;37.67
36454;BME280;22478;51.740;-1.314;2023-05-20T12:38:17;101213.36;;;16.83;36.91
36454;BME280;22478;51.740;-1.314;2023-05-20T12:40:44;101220.66;;;15.40;38.13
36454;BME280;22478;51.740;-1.314;2023-05-20T12:43:11;101206.54;;;19.71;35.15